createdAt,value
2022-07-30T00:02:20.715Z,8.63
2022-07-30T00:04:48.742Z,5.70
2022-07-30T00:07:16.588Z,6.80
2022-07-30T00:09:44.417Z,6.70
2022-07-30T00:12:13.591Z,7.93
2022-07-30T00:14:41.444Z,6.10
2022-07-30T00:17:09.547Z,6.87
2022-07-30T00:19:37.353Z,6.13
2022-07-30T00:22:05.194Z,5.63
2022-07-30T00:24:32.965Z,6.20
2022-07-30T00:27:01.084Z,5.87
2022-07-30T00:29:30.845Z,6.07
2022-07-30T00:31:58.663Z,8.50
2022-07-30T00:34:26.814Z,7.00
2022-07-30T00:36:54.652Z,5.80
2022-07-30T00:39:22.462Z,9.10
2022-07-30T00:41:59.207Z,8.67
2022-07-30T00:44:27.120Z,8.60
2022-07-30T00:46:56.776Z,8.37
2022-07-30T00:49:25.170Z,8.77
2022-07-30T00:51:53.355Z,8.67
2022-07-30T00:54:22.128Z,8.50
2022-07-30T00:56:50.194Z,7.50
2022-07-30T00:59:18.154Z,7.33
2022-07-30T01:01:46.103Z,8.90
2022-07-30T01:04:15.269Z,6.80
2022-07-30T01:06:43.044Z,7.07
2022-07-30T01:09:11.004Z,5.93
2022-07-30T01:11:41.092Z,5.43
2022-07-30T01:14:10.232Z,7.93
2022-07-30T01:16:41.557Z,5.87
2022-07-30T01:19:39.250Z,5.23
2022-07-30T01:22:13.458Z,5.13
2022-07-30T01:24:44.383Z,5.37
2022-07-30T01:27:19.730Z,6.07
2022-07-30T01:29:48.881Z,5.37
2022-07-30T01:32:19.697Z,5.93
2022-07-30T01:34:48.529Z,6.40
2022-07-30T01:37:17.844Z,8.77
2022-07-30T01:39:49.529Z,8.00
2022-07-30T01:42:20.329Z,5.47
2022-07-30T01:44:50.072Z,6.20
2022-07-30T01:47:19.823Z,9.80
2022-07-30T01:49:49.897Z,7.43
2022-07-30T01:52:19.696Z,6.60
2022-07-30T01:54:51.141Z,10.17
2022-07-30T01:57:22.068Z,6.23
2022-07-30T01:59:53.230Z,6.23
2022-07-30T02:02:21.230Z,10.97
2022-07-30T02:04:49.236Z,10.37
2022-07-30T02:07:24.002Z,6.63
2022-07-30T02:09:56.561Z,6.93
2022-07-30T02:12:29.809Z,5.20
2022-07-30T02:15:14.934Z,5.97
2022-07-30T02:17:46.612Z,4.90
2022-07-30T02:20:17.547Z,5.30
2022-07-30T02:22:48.159Z,5.93
2022-07-30T02:25:19.558Z,5.07
2022-07-30T02:27:53.771Z,4.83
2022-07-30T02:30:26.823Z,5.23
2022-07-30T02:33:00.316Z,6.17
2022-07-30T02:35:30.623Z,5.90
2022-07-30T02:38:00.845Z,7.20
2022-07-30T02:40:29.823Z,6.27
2022-07-30T02:43:01.313Z,6.37
2022-07-30T02:45:30.148Z,5.53
2022-07-30T02:48:01.862Z,5.67
2022-07-30T02:50:31.690Z,5.40
2022-07-30T02:53:01.615Z,6.53
2022-07-30T02:55:33.454Z,5.37
2022-07-30T02:58:05.153Z,6.63
2022-07-30T03:00:33.862Z,5.30
2022-07-30T03:03:03.376Z,6.77
2022-07-30T03:05:31.786Z,5.97
2022-07-30T03:08:01.209Z,5.43
2022-07-30T03:10:30.204Z,5.13
2022-07-30T03:12:59.818Z,6.93
2022-07-30T03:15:30.590Z,7.60
2022-07-30T03:18:00.203Z,6.33
2022-07-30T03:20:30.958Z,5.33
2022-07-30T03:23:02.337Z,6.60
2022-07-30T03:25:32.038Z,8.17
2022-07-30T03:28:03.766Z,6.27
2022-07-30T03:30:35.578Z,6.43
2022-07-30T03:33:03.810Z,9.43
2022-07-30T03:35:32.417Z,6.67
2022-07-30T03:38:01.399Z,6.10
2022-07-30T03:40:30.373Z,7.73
2022-07-30T03:42:58.947Z,6.03
2022-07-30T03:45:27.383Z,6.70
2022-07-30T03:47:57.377Z,6.37
2022-07-30T03:50:25.347Z,6.53
2022-07-30T03:52:53.628Z,6.87
2022-07-30T03:55:22.916Z,9.53
2022-07-30T03:57:51.025Z,10.80
2022-07-30T04:00:18.946Z,12.07
2022-07-30T04:02:48.146Z,7.57
2022-07-30T04:05:17.983Z,8.37
2022-07-30T04:07:45.741Z,7.50
2022-07-30T04:10:15.659Z,8.37
2022-07-30T04:12:43.935Z,9.07
2022-07-30T04:16:31.752Z,7.10
2022-07-30T04:18:04.428Z,7.17
2022-07-30T04:20:40.807Z,11.17
2022-07-30T04:23:10.444Z,9.73
2022-07-30T04:25:38.870Z,7.70
2022-07-30T04:28:07.265Z,7.60
2022-07-30T04:30:35.318Z,7.43
2022-07-30T04:33:04.248Z,7.97
2022-07-30T04:35:51.368Z,9.63
2022-07-30T04:38:20.583Z,12.93
2022-07-30T04:40:48.932Z,12.83
2022-07-30T04:43:16.803Z,12.17
2022-07-30T04:45:44.758Z,39.07
2022-07-30T04:48:12.623Z,52.13
2022-07-30T04:50:44.357Z,42.77
2022-07-30T04:53:12.556Z,36.33
2022-07-30T04:55:43.407Z,26.67
2022-07-30T04:58:13.221Z,14.73
2022-07-30T05:00:41.723Z,11.83
2022-07-30T05:03:12.769Z,8.27
2022-07-30T05:05:43.446Z,14.27
2022-07-30T05:08:13.513Z,10.47
2022-07-30T05:10:41.657Z,13.63
2022-07-30T05:13:12.305Z,8.80
2022-07-30T05:15:41.416Z,9.40
2022-07-30T05:18:09.607Z,9.83
2022-07-30T05:20:37.727Z,8.43
2022-07-30T05:23:08.108Z,7.50
2022-07-30T05:25:35.879Z,7.50
2022-07-30T05:28:03.697Z,7.77
2022-07-30T05:30:31.587Z,7.90
2022-07-30T05:32:59.461Z,9.57
2022-07-30T05:35:31.275Z,14.80
2022-07-30T05:38:00.101Z,7.13
2022-07-30T05:40:29.287Z,9.83
2022-07-30T05:42:57.215Z,8.67
2022-07-30T05:45:25.011Z,8.53
2022-07-30T05:47:52.766Z,8.67
2022-07-30T05:50:20.926Z,9.43
2022-07-30T05:52:48.957Z,7.33
2022-07-30T05:55:16.875Z,6.70
2022-07-30T05:57:45.985Z,8.77
2022-07-30T06:00:14.685Z,9.87
2022-07-30T06:02:42.511Z,8.00
2022-07-30T06:05:10.473Z,7.23
2022-07-30T06:07:38.195Z,7.67
2022-07-30T06:10:07.021Z,7.37
2022-07-30T06:12:34.856Z,8.00
2022-07-30T06:15:05.197Z,8.00
2022-07-30T06:17:41.279Z,6.33
2022-07-30T06:20:10.679Z,7.33
2022-07-30T06:22:38.534Z,9.10
2022-07-30T06:25:07.280Z,7.17
2022-07-30T06:27:39.593Z,8.20
2022-07-30T06:30:11.844Z,8.43
2022-07-30T06:32:39.626Z,7.60
2022-07-30T06:35:08.519Z,7.63
2022-07-30T06:38:06.223Z,9.07
2022-07-30T06:40:24.160Z,9.40
2022-07-30T06:42:51.912Z,9.23
2022-07-30T06:45:21.130Z,8.03
2022-07-30T06:47:49.046Z,8.10
2022-07-30T06:50:18.934Z,7.90
2022-07-30T06:52:47.200Z,8.43
2022-07-30T06:55:15.052Z,10.00
2022-07-30T06:57:42.858Z,9.47
2022-07-30T07:00:11.631Z,9.47
2022-07-30T07:02:42.574Z,8.97
2022-07-30T07:05:10.857Z,11.17
2022-07-30T07:07:43.227Z,9.03
2022-07-30T07:10:14.188Z,10.83
2022-07-30T07:12:41.946Z,9.93
2022-07-30T07:15:10.770Z,9.07
2022-07-30T07:17:40.383Z,14.13
2022-07-30T07:20:08.962Z,10.10
2022-07-30T07:22:36.752Z,13.17
2022-07-30T07:25:05.054Z,8.87
2022-07-30T07:27:32.831Z,9.57
2022-07-30T07:30:05.567Z,7.57
2022-07-30T07:32:34.430Z,9.70
2022-07-30T07:35:03.648Z,9.20
2022-07-30T07:37:31.487Z,16.53
2022-07-30T07:39:59.313Z,9.10
2022-07-30T07:42:27.108Z,8.27
2022-07-30T07:44:54.991Z,10.20
2022-07-30T07:47:22.767Z,8.88
2022-07-30T07:49:50.551Z,7.40
2022-07-30T07:52:19.893Z,11.23
2022-07-30T07:54:47.739Z,8.48
2022-07-30T07:57:15.595Z,12.55
2022-07-30T07:59:44.566Z,14.25
2022-07-30T08:02:12.575Z,11.90
2022-07-30T08:04:40.790Z,9.07
2022-07-30T08:07:08.598Z,7.55
2022-07-30T08:09:40.589Z,7.97
2022-07-30T08:12:12.825Z,7.20
2022-07-30T08:14:40.900Z,11.43
2022-07-30T08:17:09.570Z,8.93
2022-07-30T08:19:37.538Z,8.50
2022-07-30T08:22:05.365Z,10.18
2022-07-30T08:24:33.605Z,10.23
2022-07-30T08:27:03.487Z,8.30
2022-07-30T08:29:31.656Z,9.48
2022-07-30T08:31:59.729Z,7.47
2022-07-30T08:34:28.904Z,7.07
2022-07-30T08:36:56.863Z,10.45
2022-07-30T08:39:24.672Z,11.45
2022-07-30T08:41:52.688Z,10.30
2022-07-30T08:44:22.619Z,7.70
2022-07-30T08:46:53.057Z,7.82
2022-07-30T08:49:25.060Z,9.38
2022-07-30T08:51:53.252Z,10.52
2022-07-30T08:54:21.174Z,6.50
2022-07-30T08:56:50.386Z,8.35
2022-07-30T08:59:19.058Z,10.43
2022-07-30T09:01:49.778Z,7.20
2022-07-30T09:04:17.550Z,14.07
2022-07-30T09:06:45.838Z,8.50
2022-07-30T09:09:15.119Z,9.40
2022-07-30T09:11:43.106Z,13.25
2022-07-30T09:14:13.539Z,9.80
2022-07-30T09:16:42.152Z,11.00
2022-07-30T09:19:16.795Z,10.50
2022-07-30T09:21:56.730Z,14.73
2022-07-30T09:24:24.586Z,8.93
2022-07-30T09:26:58.340Z,8.93
2022-07-30T09:29:28.308Z,9.60
2022-07-30T09:31:57.689Z,9.20
2022-07-30T09:34:28.821Z,12.75
2022-07-30T09:36:58.170Z,12.13
2022-07-30T09:39:30.133Z,8.85
2022-07-30T09:41:58.316Z,11.75
2022-07-30T09:44:28.206Z,11.00
2022-07-30T09:46:56.570Z,9.02
2022-07-30T09:49:26.065Z,12.93
2022-07-30T09:51:57.512Z,9.45
2022-07-30T09:54:26.584Z,8.63
2022-07-30T09:57:22.747Z,9.23
2022-07-30T09:59:54.588Z,6.75
2022-07-30T10:02:29.604Z,11.68
2022-07-30T10:05:14.080Z,12.60
2022-07-30T10:07:52.069Z,10.52
2022-07-30T10:10:25.192Z,7.18
2022-07-30T10:12:57.942Z,8.55
2022-07-30T10:15:29.538Z,8.02
2022-07-30T10:17:58.081Z,11.90
2022-07-30T10:24:06.835Z,9.85
2022-07-30T10:26:35.981Z,11.02
2022-07-30T10:29:04.069Z,9.85
2022-07-30T10:31:47.041Z,8.65
2022-07-30T10:34:23.606Z,6.75
2022-07-30T10:36:58.590Z,6.55
2022-07-30T10:39:34.446Z,7.03
2022-07-30T10:42:17.915Z,8.77
2022-07-30T10:45:01.451Z,6.00
2022-07-30T10:47:34.465Z,8.77
2022-07-30T10:50:10.433Z,5.93
2022-07-30T10:52:53.174Z,9.85
2022-07-30T10:55:37.128Z,6.68
2022-07-30T10:58:08.056Z,4.60
2022-07-30T11:00:38.255Z,4.10
2022-07-30T11:03:18.115Z,5.03
2022-07-30T11:05:48.438Z,8.48
2022-07-30T11:08:36.283Z,4.20
2022-07-30T11:12:02.058Z,6.57
2022-07-30T11:14:15.458Z,2.83
2022-07-30T11:17:02.013Z,9.18
2022-07-30T11:19:53.182Z,6.40
2022-07-30T11:22:27.102Z,7.93
2022-07-30T11:24:55.286Z,6.88
2022-07-30T11:27:41.798Z,6.90
2022-07-30T11:30:34.158Z,5.47
2022-07-30T11:33:33.029Z,6.15
2022-07-30T11:36:12.684Z,5.15
2022-07-30T11:38:55.600Z,8.15
2022-07-30T11:41:24.243Z,4.53
2022-07-30T11:44:25.201Z,6.55
2022-07-30T11:46:54.409Z,4.60
2022-07-30T11:49:22.307Z,5.18
2022-07-30T11:51:50.884Z,4.65
2022-07-30T11:54:18.957Z,4.28
2022-07-30T11:56:50.914Z,7.00
2022-07-30T11:59:18.760Z,8.07
2022-07-30T12:01:51.522Z,6.03
2022-07-30T12:04:20.776Z,5.70
2022-07-30T12:06:50.079Z,5.38
2022-07-30T12:09:27.422Z,3.55
2022-07-30T12:11:55.694Z,4.88
2022-07-30T12:14:23.574Z,5.05
2022-07-30T12:16:52.747Z,5.18
2022-07-30T12:19:22.385Z,3.38
2022-07-30T12:21:53.343Z,4.82
2022-07-30T12:24:26.598Z,4.65
2022-07-30T12:27:05.895Z,4.22
2022-07-30T12:29:35.150Z,6.13
2022-07-30T12:32:03.249Z,4.32
2022-07-30T12:34:33.701Z,4.57
2022-07-30T12:37:09.764Z,2.50
2022-07-30T12:39:37.719Z,3.47
2022-07-30T12:42:05.813Z,6.15
2022-07-30T12:44:41.629Z,3.65
2022-07-30T12:47:21.563Z,5.60
2022-07-30T12:49:53.212Z,5.70
2022-07-30T12:52:28.119Z,4.07
2022-07-30T12:55:02.247Z,4.68
2022-07-30T12:57:50.401Z,4.75
2022-07-30T13:00:18.469Z,3.75
2022-07-30T13:02:46.366Z,3.90
2022-07-30T13:05:15.635Z,10.57
2022-07-30T13:08:01.179Z,3.80
2022-07-30T13:10:31.417Z,3.28
2022-07-30T13:12:59.690Z,6.40
2022-07-30T13:15:27.574Z,3.45
2022-07-30T13:17:55.377Z,4.40
2022-07-30T13:20:24.724Z,3.75
2022-07-30T13:22:52.735Z,6.18
2022-07-30T13:25:20.518Z,2.88
2022-07-30T13:27:48.514Z,5.22
2022-07-30T13:30:16.563Z,4.05
2022-07-30T13:32:44.298Z,12.70
2022-07-30T13:35:12.109Z,3.45
2022-07-30T13:37:41.255Z,3.15
2022-07-30T13:40:10.501Z,4.32
2022-07-30T13:42:38.405Z,4.68
2022-07-30T13:45:07.309Z,5.65
2022-07-30T13:47:35.648Z,5.88
2022-07-30T13:50:03.475Z,4.35
2022-07-30T13:52:31.249Z,4.47
2022-07-30T13:55:00.445Z,5.53
2022-07-30T13:57:28.266Z,2.40
2022-07-30T13:59:56.084Z,6.13
2022-07-30T14:02:23.874Z,4.60
2022-07-30T14:04:52.411Z,3.53
2022-07-30T14:07:20.416Z,4.60
2022-07-30T14:09:52.676Z,2.63
2022-07-30T14:12:25.457Z,3.17
2022-07-30T14:14:53.292Z,4.85
2022-07-30T14:17:21.107Z,3.38
2022-07-30T14:19:50.224Z,5.82
2022-07-30T14:22:20.410Z,4.03
2022-07-30T14:24:48.642Z,2.40
2022-07-30T14:27:18.300Z,6.35
2022-07-30T14:29:47.867Z,5.70
2022-07-30T14:32:15.663Z,5.40
2022-07-30T14:34:49.114Z,3.63
2022-07-30T14:37:17.653Z,3.45
2022-07-30T14:39:45.473Z,4.43
2022-07-30T14:42:13.309Z,2.10
2022-07-30T14:44:41.270Z,2.78
2022-07-30T14:47:10.710Z,4.05
2022-07-30T14:49:38.599Z,2.25
2022-07-30T14:52:06.850Z,3.00
2022-07-30T14:54:34.725Z,5.78
2022-07-30T14:57:02.904Z,4.78
2022-07-30T14:59:30.930Z,4.15
2022-07-30T15:01:58.792Z,4.78
2022-07-30T15:04:28.036Z,4.18
2022-07-30T15:06:55.883Z,4.35
2022-07-30T15:09:23.708Z,5.15
2022-07-30T15:12:09.309Z,2.65
2022-07-30T15:14:38.671Z,4.22
2022-07-30T15:17:08.008Z,4.72
2022-07-30T15:19:37.182Z,3.45
2022-07-30T15:22:14.138Z,1.75
2022-07-30T15:24:42.051Z,2.67
2022-07-30T15:27:09.874Z,3.95
2022-07-30T15:29:37.773Z,4.93
2022-07-30T15:32:06.189Z,4.50
2022-07-30T15:34:34.991Z,4.05
2022-07-30T15:37:05.405Z,3.38
2022-07-30T15:39:33.738Z,4.35
2022-07-30T15:42:02.215Z,5.50
2022-07-30T15:44:30.432Z,4.10
2022-07-30T15:46:58.444Z,5.75
2022-07-30T15:49:26.796Z,2.13
2022-07-30T15:51:55.018Z,2.42
2022-07-30T15:54:26.627Z,2.22
2022-07-30T15:57:00.808Z,2.67
2022-07-30T15:59:30.179Z,7.15
2022-07-30T16:01:58.313Z,2.13
2022-07-30T16:04:31.975Z,2.50
2022-07-30T16:07:00.964Z,5.43
2022-07-30T16:09:30.564Z,5.57
2022-07-30T16:11:58.758Z,2.25
2022-07-30T16:14:27.024Z,5.68
2022-07-30T16:16:54.855Z,4.40
2022-07-30T16:19:23.127Z,2.28
2022-07-30T16:21:51.017Z,3.25
2022-07-30T16:24:18.815Z,6.03
2022-07-30T16:26:47.973Z,4.90
2022-07-30T16:29:15.762Z,4.03
2022-07-30T16:31:43.819Z,2.38
2022-07-30T16:34:11.867Z,2.35
2022-07-30T16:36:39.866Z,3.40
2022-07-30T16:39:08.030Z,5.40
2022-07-30T16:41:36.328Z,3.45
2022-07-30T16:44:05.913Z,4.60
2022-07-30T16:46:33.733Z,2.45
2022-07-30T16:49:01.573Z,1.95
2022-07-30T16:51:29.369Z,2.28
2022-07-30T16:53:57.180Z,6.07
2022-07-30T16:56:25.174Z,4.53
2022-07-30T16:58:53.104Z,4.13
2022-07-30T17:01:22.246Z,4.43
2022-07-30T17:03:50.401Z,6.80
2022-07-30T17:06:18.266Z,2.75
2022-07-30T17:08:46.018Z,4.80
2022-07-30T17:11:47.692Z,2.65
2022-07-30T17:14:04.389Z,4.80
2022-07-30T17:16:33.834Z,3.80
2022-07-30T17:19:09.307Z,6.32
2022-07-30T17:21:38.018Z,4.55
2022-07-30T17:24:11.039Z,3.88
2022-07-30T17:26:40.296Z,2.03
2022-07-30T17:29:13.469Z,2.13
2022-07-30T17:31:44.223Z,3.85
2022-07-30T17:34:14.186Z,3.85
2022-07-30T17:36:47.021Z,2.33
2022-07-30T17:40:26.708Z,2.38
2022-07-30T17:42:10.341Z,2.45
2022-07-30T17:44:39.266Z,1.60
2022-07-30T17:47:14.009Z,2.33
2022-07-30T17:49:43.120Z,1.23
2022-07-30T17:52:11.454Z,2.50
2022-07-30T17:54:39.318Z,1.42
2022-07-30T17:57:07.195Z,1.60
2022-07-30T17:59:35.085Z,1.45
2022-07-30T18:02:04.296Z,1.80
2022-07-30T18:04:34.955Z,2.53
2022-07-30T18:07:03.434Z,3.33
2022-07-30T18:09:39.514Z,2.22
2022-07-30T18:12:09.330Z,3.15
2022-07-30T18:14:37.298Z,2.83
2022-07-30T18:17:05.257Z,4.15
2022-07-30T18:19:34.480Z,4.82
2022-07-30T18:22:03.159Z,3.05
2022-07-30T18:24:44.397Z,4.38
2022-07-30T18:27:13.188Z,6.15
2022-07-30T18:29:41.054Z,4.85
2022-07-30T18:32:09.581Z,6.72
2022-07-30T18:34:38.740Z,5.93
2022-07-30T18:37:06.633Z,3.35
2022-07-30T18:39:34.457Z,3.83
2022-07-30T18:42:03.475Z,5.55
2022-07-30T18:44:32.365Z,5.43
2022-07-30T18:47:00.505Z,4.28
2022-07-30T18:49:37.463Z,4.97
2022-07-30T18:52:08.255Z,5.53
2022-07-30T18:54:37.294Z,6.15
2022-07-30T18:57:05.797Z,4.10
2022-07-30T18:59:33.787Z,2.60
2022-07-30T19:02:02.252Z,4.65
2022-07-30T19:04:31.279Z,4.78
2022-07-30T19:06:59.081Z,5.30
2022-07-30T19:09:28.319Z,6.20
2022-07-30T19:11:56.056Z,4.65
2022-07-30T19:14:23.864Z,3.50
2022-07-30T19:16:54.759Z,5.70
2022-07-30T19:19:27.817Z,6.43
2022-07-30T19:21:55.949Z,8.52
2022-07-30T19:24:23.814Z,5.30
2022-07-30T19:26:57.019Z,4.87
2022-07-30T19:29:24.907Z,7.30
2022-07-30T19:31:52.732Z,5.70
2022-07-30T19:34:20.511Z,8.20
2022-07-30T19:36:48.323Z,11.63
2022-07-30T19:39:21.615Z,8.57
2022-07-30T19:41:51.088Z,8.40
2022-07-30T19:44:20.438Z,10.90
2022-07-30T19:46:51.614Z,9.10
2022-07-30T19:49:20.129Z,5.40
2022-07-30T19:52:17.757Z,6.00
2022-07-30T19:54:37.879Z,9.45
2022-07-30T19:57:05.788Z,7.10
2022-07-30T19:59:46.299Z,24.40
2022-07-30T20:02:23.363Z,5.13
2022-07-30T20:04:51.518Z,5.53
2022-07-30T20:07:19.351Z,5.87
2022-07-30T20:09:48.599Z,7.73
2022-07-30T20:12:17.242Z,4.90
2022-07-30T20:14:46.361Z,6.30
2022-07-30T20:17:14.581Z,6.80
2022-07-30T20:19:47.949Z,4.53
2022-07-30T20:22:17.041Z,5.33
2022-07-30T20:24:45.116Z,6.23
2022-07-30T20:27:37.252Z,4.33
2022-07-30T20:30:02.342Z,5.77
2022-07-30T20:32:30.149Z,4.23
2022-07-30T20:34:58.310Z,5.20
2022-07-30T20:37:27.377Z,5.37
2022-07-30T20:39:55.951Z,7.83
2022-07-30T20:42:24.209Z,7.27
2022-07-30T20:44:56.712Z,4.70
2022-07-30T20:47:38.330Z,10.77
2022-07-30T20:50:09.576Z,6.67
2022-07-30T20:52:39.339Z,6.60
2022-07-30T20:55:08.417Z,6.47
2022-07-30T20:57:57.301Z,8.03
2022-07-30T21:00:25.425Z,5.13
2022-07-30T21:02:54.636Z,15.60
2022-07-30T21:05:22.485Z,12.50
2022-07-30T21:07:56.349Z,9.97
2022-07-30T21:10:26.141Z,6.67
2022-07-30T21:12:58.404Z,6.93
2022-07-30T21:15:26.810Z,6.63
2022-07-30T21:18:01.975Z,6.20
2022-07-30T21:20:31.239Z,6.23
2022-07-30T21:23:04.600Z,4.07
2022-07-30T21:25:33.470Z,4.63
2022-07-30T21:28:02.737Z,4.57
2022-07-30T21:30:32.742Z,8.63
2022-07-30T21:33:02.118Z,4.77
2022-07-30T21:35:32.122Z,6.87
2022-07-30T21:38:00.405Z,4.90
2022-07-30T21:40:28.892Z,5.17
2022-07-30T21:42:57.254Z,4.73
2022-07-30T21:45:27.025Z,4.73
2022-07-30T21:48:09.349Z,6.40
2022-07-30T21:50:39.877Z,4.63
2022-07-30T21:53:08.615Z,5.97
2022-07-30T21:55:52.984Z,4.13
2022-07-30T21:58:25.859Z,3.83
2022-07-30T22:01:14.980Z,4.97
2022-07-30T22:04:02.955Z,4.27
2022-07-30T22:06:33.548Z,5.37
2022-07-30T22:09:03.452Z,5.00
2022-07-30T22:11:42.613Z,5.17
2022-07-30T22:14:13.251Z,5.17
2022-07-30T22:16:46.270Z,4.83
2022-07-30T22:19:16.291Z,3.40
2022-07-30T22:21:46.456Z,6.20
2022-07-30T22:24:29.114Z,8.87
2022-07-30T22:27:01.695Z,5.87
2022-07-30T22:29:41.555Z,3.37
2022-07-30T22:32:10.778Z,5.17
2022-07-30T22:34:40.132Z,3.87
2022-07-30T22:37:09.194Z,3.67
2022-07-30T22:39:51.515Z,6.30
2022-07-30T22:42:20.925Z,5.03
2022-07-30T22:44:52.851Z,4.70
2022-07-30T22:47:51.086Z,6.63
2022-07-30T22:50:11.625Z,6.30
2022-07-30T22:52:40.200Z,4.60
2022-07-30T22:55:22.293Z,5.80
2022-07-30T22:57:50.922Z,3.90
2022-07-30T23:00:27.087Z,6.23
2022-07-30T23:02:55.568Z,4.80
2022-07-30T23:05:26.250Z,6.27
2022-07-30T23:07:54.144Z,6.77
2022-07-30T23:10:22.958Z,8.63
2022-07-30T23:12:53.569Z,8.23
2022-07-30T23:15:22.347Z,7.03
2022-07-30T23:17:50.235Z,7.40
2022-07-30T23:20:21.234Z,7.37
2022-07-30T23:22:50.906Z,7.33
2022-07-30T23:25:19.127Z,7.97
2022-07-30T23:27:47.440Z,8.67
2022-07-30T23:30:16.787Z,10.23
2022-07-30T23:32:44.879Z,9.50
2022-07-30T23:35:12.683Z,11.17
2022-07-30T23:37:48.238Z,5.87
2022-07-30T23:40:19.290Z,7.90
2022-07-30T23:42:47.288Z,9.57
2022-07-30T23:45:15.460Z,7.90
2022-07-30T23:48:00.763Z,15.70
2022-07-30T23:50:30.214Z,8.00
2022-07-30T23:52:58.110Z,6.20
2022-07-30T23:55:27.830Z,7.93
2022-07-30T23:57:55.850Z,7.70
